Time;durP1;ratioP1;P1;durP2;ratioP2;P2;SDS_P1;SDS_P2;PMS_P1;PMS_P2;Temp;Humidity;BMP_temperature;BMP_pressure;BME280_temperature;BME280_humidity;BME280_pressure;Samples;Min_cycle;Max_cycle;Signal;HPM_P1;HPM_P2
2024/01/08 00:00:06;;;;;;;3.77;3.47;;;20.90;57.40;;;;;;5152763;27;20174;-70
2024/01/08 00:02:31;;;;;;;4.33;3.40;;;20.90;57.40;;;;;;5152466;27;20195;-70
2024/01/08 00:04:57;;;;;;;4.10;3.30;;;21.00;57.50;;;;;;5155822;27;20405;-71
2024/01/08 00:07:23;;;;;;;3.90;3.50;;;20.90;57.40;;;;;;5156705;27;20167;-69
2024/01/08 00:09:49;;;;;;;4.17;3.27;;;20.90;57.40;;;;;;5156515;27;20187;-70
2024/01/08 00:12:15;;;;;;;3.77;3.37;;;21.00;57.50;;;;;;5156549;27;20495;-70
2024/01/08 00:14:40;;;;;;;4.53;3.93;;;20.90;57.40;;;;;;5142697;27;20638;-70
2024/01/08 00:17:06;;;;;;;4.90;3.00;;;20.90;57.40;;;;;;5116827;27;20245;-71
2024/01/08 00:19:32;;;;;;;5.80;3.00;;;20.90;57.40;;;;;;5135398;27;20206;-71
2024/01/08 00:21:57;;;;;;;3.83;3.50;;;20.90;57.40;;;;;;5135600;27;20286;-70
2024/01/08 00:24:23;;;;;;;3.83;3.43;;;20.90;57.40;;;;;;5135471;27;20176;-70
2024/01/08 00:26:48;;;;;;;3.97;3.20;;;20.90;57.40;;;;;;5135345;27;20550;-71
2024/01/08 00:29:14;;;;;;;5.17;4.07;;;20.90;57.40;;;;;;5134999;27;20188;-71
2024/01/08 00:31:39;;;;;;;5.23;4.33;;;20.90;57.40;;;;;;5135271;27;20230;-71
2024/01/08 00:34:05;;;;;;;3.40;2.33;;;20.90;57.40;;;;;;5135305;27;20729;-71
2024/01/08 00:36:34;;;;;;;4.93;4.43;;;20.90;57.40;;;;;;5135459;27;20180;-71
2024/01/08 00:38:59;;;;;;;5.17;3.67;;;20.90;57.40;;;;;;5134910;27;20189;-71
2024/01/08 00:41:25;;;;;;;4.13;3.73;;;20.90;57.40;;;;;;5134978;27;21030;-70
2024/01/08 00:43:51;;;;;;;4.53;4.07;;;20.90;57.40;;;;;;5135162;27;20268;-70
2024/01/08 00:46:17;;;;;;;5.23;4.07;;;20.90;57.40;;;;;;5134922;27;20221;-71
2024/01/08 00:48:43;;;;;;;4.67;3.23;;;20.90;57.40;;;;;;5134872;27;20429;-69
2024/01/08 00:51:09;;;;;;;6.70;5.00;;;20.90;57.40;;;;;;5134782;27;20755;-71
2024/01/08 00:53:35;;;;;;;3.43;3.13;;;20.90;57.40;;;;;;5134622;27;20469;-71
2024/01/08 00:56:00;;;;;;;4.37;3.97;;;20.90;57.40;;;;;;5147188;27;20496;-71
2024/01/08 00:58:27;;;;;;;4.50;3.80;;;20.90;57.40;;;;;;5132146;27;20196;-71
2024/01/08 01:00:53;;;;;;;4.70;3.50;;;20.90;57.40;;;;;;5134847;27;20200;-71
2024/01/08 01:03:19;;;;;;;4.70;4.30;;;20.90;57.40;;;;;;5136723;27;20542;-71
2024/01/08 01:05:45;;;;;;;5.37;4.50;;;20.80;57.30;;;;;;5155436;27;20205;-71
2024/01/08 01:08:10;;;;;;;4.20;3.67;;;20.90;57.40;;;;;;5154663;27;20819;-71
2024/01/08 01:10:36;;;;;;;4.50;4.10;;;20.80;57.30;;;;;;5155567;27;20268;-71
2024/01/08 01:13:02;;;;;;;3.93;3.47;;;20.80;57.30;;;;;;5155111;27;20179;-70
2024/01/08 01:15:27;;;;;;;5.90;4.27;;;20.80;57.30;;;;;;5154918;27;20598;-71
2024/01/08 01:17:53;;;;;;;5.33;4.40;;;20.80;57.30;;;;;;5154968;27;20218;-71
2024/01/08 01:20:19;;;;;;;3.87;3.37;;;20.80;57.30;;;;;;5154891;27;20287;-70
2024/01/08 01:22:44;;;;;;;3.57;3.20;;;20.80;57.40;;;;;;5154510;27;20564;-71
2024/01/08 01:25:10;;;;;;;4.73;3.17;;;20.80;57.30;;;;;;5154720;27;20176;-71
2024/01/08 01:27:35;;;;;;;3.13;2.70;;;20.80;57.30;;;;;;5154666;27;20168;-72
2024/01/08 01:30:01;;;;;;;4.50;4.10;;;20.80;57.30;;;;;;5154790;27;20178;-71
2024/01/08 01:32:26;;;;;;;5.10;3.33;;;20.80;57.30;;;;;;5154583;27;20175;-71
2024/01/08 01:34:52;;;;;;;5.00;4.37;;;20.80;57.30;;;;;;5135805;27;20175;-71
2024/01/08 01:37:18;;;;;;;3.63;3.07;;;20.80;57.40;;;;;;5154158;27;20252;-71
2024/01/08 01:39:43;;;;;;;7.53;3.90;;;20.80;57.30;;;;;;5154580;27;20266;-72
2024/01/08 01:42:10;;;;;;;3.77;3.30;;;20.80;57.30;;;;;;5154313;27;20229;-70
2024/01/08 01:44:35;;;;;;;6.37;4.23;;;20.80;57.30;;;;;;5154409;27;20160;-71
2024/01/08 01:47:01;;;;;;;6.23;4.00;;;20.80;57.30;;;;;;5154507;27;20401;-71
2024/01/08 01:49:27;;;;;;;4.90;3.57;;;20.80;57.30;;;;;;5154644;27;20192;-70
2024/01/08 01:51:54;;;;;;;4.60;3.50;;;20.80;57.40;;;;;;5154411;27;20427;-71
2024/01/08 01:54:22;;;;;;;4.70;4.30;;;20.80;57.30;;;;;;5152566;27;20188;-70
2024/01/08 01:56:54;;;;;;;3.40;3.10;;;20.80;57.30;;;;;;5154180;27;20801;-71
2024/01/08 01:59:21;;;;;;;4.70;4.13;;;20.80;57.40;;;;;;5154210;27;20413;-70
2024/01/08 02:01:47;;;;;;;3.77;3.40;;;20.80;57.30;;;;;;5135705;27;21048;-70
2024/01/08 02:04:16;;;;;;;4.20;3.73;;;20.80;57.30;;;;;;5147991;27;20501;-70
2024/01/08 02:06:44;;;;;;;5.07;4.20;;;20.80;57.30;;;;;;5145892;27;20171;-70
2024/01/08 02:09:13;;;;;;;4.63;3.80;;;20.70;57.30;;;;;;5153962;27;20424;-71
2024/01/08 02:11:39;;;;;;;4.87;4.00;;;20.80;57.30;;;;;;5154231;27;20915;-71
2024/01/08 02:14:05;;;;;;;5.40;4.30;;;20.80;57.30;;;;;;5154084;27;20781;-70
2024/01/08 02:16:30;;;;;;;7.77;6.50;;;20.80;57.30;;;;;;5154152;27;20433;-70
2024/01/08 02:18:56;;;;;;;5.40;3.73;;;20.70;57.30;;;;;;5154077;27;20804;-71
2024/01/08 02:21:22;;;;;;;4.17;3.77;;;20.80;57.30;;;;;;5152432;27;20654;-71
2024/01/08 02:23:50;;;;;;;4.50;3.30;;;20.80;57.30;;;;;;5153308;27;20192;-71
2024/01/08 02:26:16;;;;;;;4.27;3.27;;;20.70;57.30;;;;;;5134766;27;20945;-71
2024/01/08 02:28:41;;;;;;;3.50;3.20;;;20.70;57.30;;;;;;5153947;27;20222;-70
2024/01/08 02:31:07;;;;;;;5.30;3.73;;;20.80;57.30;;;;;;5154091;27;20182;-71
2024/01/08 02:33:33;;;;;;;4.03;3.60;;;20.80;57.30;;;;;;5134787;27;20187;-70
2024/01/08 02:36:00;;;;;;;6.60;3.70;;;20.70;57.30;;;;;;5153608;27;20236;-70
2024/01/08 02:38:25;;;;;;;5.70;4.50;;;20.70;57.20;;;;;;5153949;27;20705;-70
2024/01/08 02:40:51;;;;;;;3.50;3.20;;;20.70;57.30;;;;;;5154000;27;20420;-71
2024/01/08 02:43:17;;;;;;;3.70;3.17;;;20.70;57.20;;;;;;5151021;27;20215;-70
2024/01/08 02:45:42;;;;;;;4.13;3.70;;;20.70;57.30;;;;;;5132886;27;20647;-69
2024/01/08 02:48:08;;;;;;;4.30;3.00;;;20.70;57.20;;;;;;5132753;27;20188;-71
2024/01/08 02:50:34;;;;;;;3.53;3.23;;;20.70;57.30;;;;;;5114674;27;20272;-71
2024/01/08 02:52:59;;;;;;;4.83;3.47;;;20.70;57.30;;;;;;5133190;27;20413;-70
2024/01/08 02:55:25;;;;;;;3.53;2.93;;;20.70;57.30;;;;;;5151126;27;20211;-71
2024/01/08 02:57:50;;;;;;;4.83;3.40;;;20.70;57.30;;;;;;5134597;27;20724;-71
2024/01/08 03:00:16;;;;;;;3.97;3.60;;;20.70;57.30;;;;;;5153269;27;20254;-71
2024/01/08 03:02:42;;;;;;;2.97;2.67;;;20.70;57.20;;;;;;5153600;27;20304;-72
2024/01/08 03:05:08;;;;;;;4.67;3.20;;;20.70;57.30;;;;;;5152932;27;20435;-72
2024/01/08 03:07:33;;;;;;;4.50;4.10;;;20.70;57.30;;;;;;5134733;27;20220;-71
2024/01/08 03:09:59;;;;;;;3.87;3.40;;;20.70;57.20;;;;;;5153333;27;20393;-71
2024/01/08 03:12:25;;;;;;;3.73;2.90;;;20.70;57.20;;;;;;5153036;27;20258;-72
2024/01/08 03:14:51;;;;;;;3.43;3.13;;;20.70;57.20;;;;;;5153041;27;20416;-71
2024/01/08 03:17:17;;;;;;;3.83;3.40;;;20.70;57.20;;;;;;5153325;27;20577;-72
2024/01/08 03:19:43;;;;;;;3.70;3.40;;;20.70;57.20;;;;;;5153146;27;20433;-71
2024/01/08 03:22:08;;;;;;;4.43;3.00;;;20.70;57.20;;;;;;5153091;27;20265;-72
2024/01/08 03:24:37;;;;;;;5.70;3.47;;;20.70;57.20;;;;;;5152852;27;20184;-72
2024/01/08 03:27:03;;;;;;;3.57;3.27;;;20.60;57.20;;;;;;5152862;27;20251;-72
2024/01/08 03:29:29;;;;;;;4.20;3.80;;;20.60;57.20;;;;;;5153312;27;20512;-72
2024/01/08 03:31:54;;;;;;;5.93;3.43;;;20.60;57.20;;;;;;5134194;27;20822;-72
2024/01/08 03:34:20;;;;;;;4.10;3.40;;;20.70;57.20;;;;;;5134025;27;20187;-71
2024/01/08 03:36:49;;;;;;;3.83;3.53;;;20.60;57.20;;;;;;5153141;27;20186;-72
2024/01/08 03:39:17;;;;;;;3.20;2.90;;;20.70;57.20;;;;;;5154369;27;20199;-72
2024/01/08 03:41:43;;;;;;;4.30;3.40;;;20.60;57.20;;;;;;5157160;27;20461;-71
2024/01/08 03:44:09;;;;;;;4.03;3.60;;;20.60;57.20;;;;;;5143351;27;20993;-72
2024/01/08 03:46:38;;;;;;;4.17;3.33;;;20.60;57.20;;;;;;5136526;27;20782;-71
2024/01/08 03:49:04;;;;;;;3.40;2.97;;;20.60;57.20;;;;;;5135961;27;20512;-72
2024/01/08 03:51:31;;;;;;;5.60;4.37;;;20.60;57.20;;;;;;5136118;27;20399;-72
2024/01/08 03:53:56;;;;;;;3.40;3.10;;;20.60;57.20;;;;;;5135725;27;20975;-71
2024/01/08 03:56:22;;;;;;;3.20;2.90;;;20.60;57.20;;;;;;5148244;27;20500;-71
2024/01/08 03:58:47;;;;;;;4.47;3.47;;;20.60;57.20;;;;;;5156590;27;20256;-72
2024/01/08 04:01:14;;;;;;;5.13;3.57;;;20.60;57.20;;;;;;5156431;27;20172;-72
2024/01/08 04:03:40;;;;;;;4.07;3.20;;;20.60;57.20;;;;;;5156232;27;20250;-70
2024/01/08 04:06:06;;;;;;;3.30;2.97;;;20.60;57.20;;;;;;5156315;27;20393;-70
2024/01/08 04:08:31;;;;;;;4.10;3.40;;;20.60;57.20;;;;;;5137710;27;20299;-71
2024/01/08 04:10:57;;;;;;;3.60;3.30;;;20.60;57.20;;;;;;5156326;27;20186;-71
2024/01/08 04:13:22;;;;;;;3.30;3.00;;;20.60;57.20;;;;;;5155894;27;20557;-71
2024/01/08 04:15:48;;;;;;;4.70;4.00;;;20.60;57.20;;;;;;5155996;27;20191;-71
2024/01/08 04:18:14;;;;;;;6.27;4.07;;;20.60;57.20;;;;;;5156088;27;20682;-71
2024/01/08 04:20:40;;;;;;;4.00;3.27;;;20.60;57.20;;;;;;5155919;27;20176;-69
2024/01/08 04:23:06;;;;;;;4.10;3.60;;;20.60;57.20;;;;;;5155505;27;20187;-71
2024/01/08 04:25:31;;;;;;;4.37;3.50;;;20.60;57.20;;;;;;5155390;27;20469;-70
2024/01/08 04:27:57;;;;;;;3.70;3.00;;;20.60;57.20;;;;;;5155736;27;20198;-71
2024/01/08 04:30:23;;;;;;;3.97;3.63;;;20.60;57.20;;;;;;5155829;27;20172;-71
2024/01/08 04:32:48;;;;;;;4.33;4.00;;;20.60;57.20;;;;;;5155943;27;20171;-71
2024/01/08 04:35:14;;;;;;;2.73;2.53;;;20.60;57.10;;;;;;5155202;27;20187;-71
2024/01/08 04:37:40;;;;;;;3.17;2.87;;;20.60;57.20;;;;;;5155572;27;20533;-70
2024/01/08 04:40:07;;;;;;;4.00;3.50;;;20.60;57.20;;;;;;5155543;27;20598;-70
2024/01/08 04:42:33;;;;;;;3.97;3.17;;;20.60;57.20;;;;;;5155463;27;20448;-71
2024/01/08 04:44:58;;;;;;;3.83;3.00;;;20.60;57.10;;;;;;5155532;27;20423;-71
2024/01/08 04:47:24;;;;;;;3.43;3.13;;;20.60;57.10;;;;;;5154008;27;20179;-70
2024/01/08 04:49:50;;;;;;;3.57;3.27;;;20.60;57.20;;;;;;5155427;27;20217;-70
2024/01/08 04:52:15;;;;;;;3.87;3.30;;;20.60;57.10;;;;;;5155643;27;20195;-72
2024/01/08 04:54:42;;;;;;;3.50;3.10;;;20.60;57.20;;;;;;5156110;27;20175;-71
2024/01/08 04:57:08;;;;;;;4.53;3.10;;;20.60;57.10;;;;;;5141778;27;20209;-71
2024/01/08 04:59:42;;;;;;;3.80;3.50;;;20.60;57.10;;;;;;5134733;27;20437;-71
2024/01/08 05:02:10;;;;;;;4.23;2.97;;;20.60;57.10;;;;;;5135006;27;20829;-71
2024/01/08 05:04:36;;;;;;;3.50;3.20;;;20.60;57.10;;;;;;5135274;27;20960;-71
2024/01/08 05:07:02;;;;;;;3.47;3.10;;;20.60;57.10;;;;;;5134938;27;20425;-70
2024/01/08 05:09:29;;;;;;;3.50;2.80;;;20.60;57.10;;;;;;5134674;27;20213;-71
2024/01/08 05:11:54;;;;;;;3.47;3.17;;;20.60;57.10;;;;;;5134647;27;20410;-71
2024/01/08 05:14:20;;;;;;;2.97;2.67;;;20.60;57.10;;;;;;5135140;27;20417;-71
2024/01/08 05:16:45;;;;;;;3.50;3.20;;;20.60;57.10;;;;;;5134792;27;20282;-71
2024/01/08 05:19:11;;;;;;;3.33;3.03;;;20.60;57.10;;;;;;5116452;27;20188;-70
2024/01/08 05:21:36;;;;;;;3.23;2.93;;;20.60;57.10;;;;;;5134358;27;20168;-71
2024/01/08 05:24:02;;;;;;;3.33;3.03;;;20.60;57.20;;;;;;5116069;27;20200;-71
2024/01/08 05:26:28;;;;;;;4.07;3.50;;;20.60;57.10;;;;;;5134574;27;20180;-71
2024/01/08 05:28:53;;;;;;;3.40;2.90;;;20.60;57.70;;;;;;5134315;27;20272;-70
2024/01/08 05:31:21;;;;;;;3.50;3.20;;;20.60;57.10;;;;;;5134387;27;20247;-71
2024/01/08 05:33:46;;;;;;;3.13;2.83;;;20.60;57.10;;;;;;5134374;27;20240;-71
2024/01/08 05:36:12;;;;;;;4.03;3.70;;;20.60;57.10;;;;;;5134546;27;20410;-71
2024/01/08 05:38:37;;;;;;;3.90;3.47;;;20.60;57.10;;;;;;5135151;27;20215;-69
2024/01/08 05:41:03;;;;;;;3.60;3.23;;;20.60;57.10;;;;;;5116306;27;20176;-69
2024/01/08 05:43:29;;;;;;;5.20;4.00;;;20.60;57.10;;;;;;5135133;27;20195;-71
2024/01/08 05:45:54;;;;;;;4.07;3.70;;;20.60;57.10;;;;;;5141098;27;20206;-71
2024/01/08 05:48:20;;;;;;;3.83;3.17;;;20.60;57.10;;;;;;5155748;27;20293;-69
2024/01/08 05:50:46;;;;;;;3.80;3.30;;;20.60;57.10;;;;;;5137979;27;20221;-69
2024/01/08 05:53:13;;;;;;;4.97;3.60;;;20.60;57.10;;;;;;5156258;27;20167;-70
2024/01/08 05:55:38;;;;;;;4.27;3.03;;;20.60;57.10;;;;;;5156966;27;20417;-68
2024/01/08 05:58:04;;;;;;;5.23;3.27;;;20.60;57.10;;;;;;5153945;27;20432;-70
2024/01/08 06:00:30;;;;;;;2.90;2.60;;;20.60;57.10;;;;;;5155672;27;20175;-70
2024/01/08 06:02:55;;;;;;;2.90;2.70;;;20.60;57.00;;;;;;5155134;27;20188;-70
2024/01/08 06:05:21;;;;;;;3.50;3.20;;;20.60;57.00;;;;;;5155709;27;20176;-70
2024/01/08 06:07:48;;;;;;;3.30;2.90;;;20.60;57.10;;;;;;5155088;27;20634;-68
2024/01/08 06:10:14;;;;;;;3.70;2.77;;;20.60;57.10;;;;;;5136888;27;20174;-70
2024/01/08 06:12:40;;;;;;;3.63;3.03;;;20.60;57.10;;;;;;5155268;27;20480;-70
2024/01/08 06:15:06;;;;;;;3.27;2.97;;;20.60;57.10;;;;;;5142838;27;20180;-70
2024/01/08 06:17:31;;;;;;;4.07;3.23;;;20.60;57.10;;;;;;5134955;27;20773;-69
2024/01/08 06:19:57;;;;;;;4.33;3.60;;;20.60;57.10;;;;;;5134996;27;20184;-69
2024/01/08 06:22:22;;;;;;;4.10;3.80;;;20.60;57.10;;;;;;5134960;27;20207;-70
2024/01/08 06:24:48;;;;;;;3.10;2.80;;;20.60;57.10;;;;;;5133647;27;20168;-68
2024/01/08 06:27:13;;;;;;;3.97;2.90;;;20.60;57.10;;;;;;5139947;27;20207;-69
2024/01/08 06:29:39;;;;;;;3.40;3.10;;;20.60;57.20;;;;;;5155621;27;20604;-69
2024/01/08 06:32:05;;;;;;;3.13;2.83;;;20.70;57.30;;;;;;5155462;27;20179;-70
2024/01/08 06:34:30;;;;;;;3.17;2.97;;;20.70;57.30;;;;;;5152214;27;20175;-67
2024/01/08 06:36:56;;;;;;;2.87;2.57;;;20.70;57.30;;;;;;5134491;27;20538;-70
2024/01/08 06:39:22;;;;;;;3.40;3.10;;;20.80;57.30;;;;;;5134265;27;20237;-68
2024/01/08 06:41:47;;;;;;;3.33;2.93;;;20.80;57.30;;;;;;5136145;27;20184;-70
2024/01/08 06:44:13;;;;;;;3.50;3.00;;;20.80;57.20;;;;;;5155261;27;20212;-70
2024/01/08 06:46:38;;;;;;;4.53;3.07;;;20.90;57.30;;;;;;5155113;27;20167;-70
2024/01/08 06:49:04;;;;;;;3.30;2.80;;;20.90;57.20;;;;;;5155157;27;20196;-69
2024/01/08 06:51:29;;;;;;;3.30;2.90;;;20.90;57.20;;;;;;5154475;27;20232;-71
2024/01/08 06:53:55;;;;;;;3.40;2.73;;;20.90;57.20;;;;;;5154258;27;20597;-70
2024/01/08 06:56:21;;;;;;;4.60;3.53;;;21.00;57.20;;;;;;5155009;27;20211;-70
2024/01/08 06:58:47;;;;;;;2.80;2.60;;;21.00;57.20;;;;;;5143579;27;20204;-70
2024/01/08 07:01:15;;;;;;;2.80;2.57;;;21.00;57.10;;;;;;5144888;27;20175;-69
2024/01/08 07:03:41;;;;;;;3.17;2.87;;;21.10;57.10;;;;;;5155799;27;20461;-70
2024/01/08 07:06:07;;;;;;;3.17;2.70;;;21.10;57.10;;;;;;5155604;27;20424;-70
2024/01/08 07:08:33;;;;;;;2.67;2.47;;;21.10;57.00;;;;;;5136932;27;21007;-70
2024/01/08 07:10:58;;;;;;;2.90;2.60;;;21.10;57.00;;;;;;5155105;27;20254;-69
2024/01/08 07:13:24;;;;;;;2.93;2.30;;;21.10;57.00;;;;;;5155088;27;20179;-70
2024/01/08 07:15:50;;;;;;;3.07;2.87;;;21.20;57.00;;;;;;5155612;27;20219;-70
2024/01/08 07:18:16;;;;;;;2.77;2.10;;;21.20;57.00;;;;;;5155357;27;20247;-69
2024/01/08 07:20:42;;;;;;;3.10;2.73;;;21.20;57.00;;;;;;5155369;27;20246;-69
2024/01/08 07:23:09;;;;;;;2.63;2.43;;;21.20;56.90;;;;;;5155151;27;20543;-68
2024/01/08 07:25:37;;;;;;;2.80;2.30;;;21.20;56.90;;;;;;5155522;27;20171;-70
2024/01/08 07:28:04;;;;;;;3.33;2.70;;;21.20;56.90;;;;;;5155418;27;20432;-69
2024/01/08 07:30:30;;;;;;;2.70;2.50;;;21.20;56.90;;;;;;5155754;27;20466;-70
2024/01/08 07:32:56;;;;;;;2.30;2.10;;;21.20;56.90;;;;;;5154950;27;20919;-67
2024/01/08 07:35:22;;;;;;;2.90;2.70;;;21.20;56.90;;;;;;5155362;27;20195;-68
2024/01/08 07:37:51;;;;;;;2.80;2.50;;;21.30;57.00;;;;;;5154853;27;20163;-69
2024/01/08 07:40:16;;;;;;;3.27;2.53;;;21.30;57.00;;;;;;5155071;27;20421;-68
2024/01/08 07:42:42;;;;;;;3.10;2.80;;;21.30;56.90;;;;;;5136481;27;20481;-69
2024/01/08 07:45:08;;;;;;;2.67;2.47;;;21.30;57.00;;;;;;5155393;27;20175;-70
2024/01/08 07:47:33;;;;;;;3.13;2.50;;;21.30;56.90;;;;;;5154929;27;20706;-67
2024/01/08 07:50:00;;;;;;;2.97;2.40;;;21.30;57.00;;;;;;5155302;27;20413;-69
2024/01/08 07:52:26;;;;;;;2.67;2.47;;;21.30;56.90;;;;;;5155058;27;20685;-69
2024/01/08 07:54:51;;;;;;;2.70;2.50;;;21.30;57.00;;;;;;5155380;27;20412;-68
2024/01/08 07:57:17;;;;;;;2.47;2.27;;;21.30;57.00;;;;;;5154673;27;20179;-68
2024/01/08 07:59:42;;;;;;;2.93;2.57;;;21.30;57.00;;;;;;5154618;27;20203;-69
2024/01/08 08:02:08;;;;;;;2.63;2.43;;;21.30;57.00;;;;;;5154659;27;20195;-69
2024/01/08 08:04:33;;;;;;;2.50;2.30;;;21.30;57.00;;;;;;5154688;27;20170;-69
2024/01/08 08:06:59;;;;;;;2.47;2.27;;;21.30;57.00;;;;;;5154348;27;20639;-69
2024/01/08 08:09:24;;;;;;;2.90;2.50;;;21.30;57.00;;;;;;5154295;27;20222;-68
2024/01/08 08:11:50;;;;;;;2.70;2.50;;;21.30;57.00;;;;;;5154889;27;20175;-69
2024/01/08 08:14:15;;;;;;;2.90;2.70;;;21.30;57.00;;;;;;5154778;27;20208;-69
2024/01/08 08:16:41;;;;;;;2.50;2.17;;;21.30;57.00;;;;;;5154162;27;20594;-71
2024/01/08 08:19:07;;;;;;;3.10;2.23;;;21.30;57.00;;;;;;5154015;27;20288;-68
2024/01/08 08:21:33;;;;;;;3.20;2.90;;;21.30;57.00;;;;;;5154330;27;20210;-69
2024/01/08 08:23:58;;;;;;;2.73;2.40;;;21.30;57.00;;;;;;5154210;27;20460;-69
2024/01/08 08:26:25;;;;;;;2.90;2.70;;;21.30;57.00;;;;;;5157572;27;20183;-69
2024/01/08 08:28:52;;;;;;;2.20;2.00;;;21.30;57.50;;;;;;5157772;27;20270;-68
2024/01/08 08:31:17;;;;;;;2.40;2.20;;;21.30;57.00;;;;;;5138063;27;20405;-70
2024/01/08 08:33:43;;;;;;;2.20;2.00;;;21.30;57.00;;;;;;5156865;27;20420;-70
2024/01/08 08:36:08;;;;;;;2.40;2.20;;;21.30;57.00;;;;;;5157350;27;20176;-70
2024/01/08 08:38:35;;;;;;;2.67;2.47;;;21.30;57.00;;;;;;5157354;27;20324;-69
2024/01/08 08:41:02;;;;;;;2.37;2.17;;;21.30;57.00;;;;;;5156724;27;20174;-69
2024/01/08 08:43:30;;;;;;;3.20;2.60;;;21.30;57.00;;;;;;5157186;27;20445;-70
2024/01/08 08:45:56;;;;;;;3.03;2.60;;;21.30;57.00;;;;;;5156820;27;20439;-70
2024/01/08 08:48:22;;;;;;;2.33;2.13;;;21.30;57.00;;;;;;5156826;27;20522;-69
2024/01/08 08:50:47;;;;;;;3.40;2.80;;;21.30;57.00;;;;;;5156610;27;20405;-70
2024/01/08 08:53:13;;;;;;;3.00;2.57;;;21.30;57.00;;;;;;5157021;27;20258;-70
2024/01/08 08:55:38;;;;;;;2.70;2.50;;;21.30;57.00;;;;;;5156495;27;20179;-69
2024/01/08 08:58:08;;;;;;;2.70;2.50;;;21.30;57.10;;;;;;5138261;27;20195;-70
2024/01/08 09:00:37;;;;;;;2.43;2.23;;;21.30;57.00;;;;;;5156444;27;20221;-69
2024/01/08 09:03:03;;;;;;;2.47;2.27;;;21.30;57.00;;;;;;5156748;27;20448;-69
2024/01/08 09:05:29;;;;;;;2.30;2.10;;;21.30;57.00;;;;;;5157146;27;20416;-69
2024/01/08 09:07:55;;;;;;;3.17;2.87;;;21.30;57.00;;;;;;5156962;27;20195;-70
2024/01/08 09:10:20;;;;;;;2.57;2.37;;;21.30;57.10;;;;;;5156462;27;20405;-71
2024/01/08 09:12:46;;;;;;;2.70;2.50;;;21.30;57.00;;;;;;5156389;27;20183;-69
2024/01/08 09:15:11;;;;;;;2.90;2.60;;;21.30;57.10;;;;;;5156174;27;20706;-69
2024/01/08 09:17:38;;;;;;;3.10;2.80;;;21.30;57.00;;;;;;5137694;27;20203;-70
2024/01/08 09:20:05;;;;;;;2.63;2.40;;;21.30;57.10;;;;;;5156425;27;20293;-69
2024/01/08 09:22:31;;;;;;;2.53;2.13;;;21.30;57.00;;;;;;5138212;27;20472;-70
2024/01/08 09:24:57;;;;;;;2.57;2.37;;;21.30;57.00;;;;;;5156068;27;20409;-69
2024/01/08 09:27:23;;;;;;;2.93;2.63;;;21.30;57.00;;;;;;5156009;27;20630;-69
2024/01/08 09:29:49;;;;;;;2.63;2.43;;;21.30;57.00;;;;;;5155901;27;20669;-70
2024/01/08 09:32:14;;;;;;;2.53;2.33;;;21.30;57.00;;;;;;5155873;27;20450;-70
2024/01/08 09:34:40;;;;;;;2.70;2.50;;;21.30;57.10;;;;;;5155705;27;20176;-70
2024/01/08 09:37:06;;;;;;;2.53;2.13;;;21.30;57.00;;;;;;5154206;27;20258;-69
2024/01/08 09:39:33;;;;;;;2.70;2.50;;;21.30;57.10;;;;;;5155534;27;20245;-70
2024/01/08 09:42:01;;;;;;;2.40;2.17;;;21.30;57.10;;;;;;5155824;27;20229;-70
2024/01/08 09:44:27;;;;;;;3.10;2.70;;;21.30;57.10;;;;;;5155437;27;20409;-71
2024/01/08 09:46:54;;;;;;;2.57;2.37;;;21.30;57.10;;;;;;5136834;27;20409;-69
2024/01/08 09:49:21;;;;;;;2.47;2.27;;;21.30;57.10;;;;;;5137178;27;20448;-70
2024/01/08 09:51:48;;;;;;;2.43;2.13;;;21.30;57.10;;;;;;5137450;27;20412;-70
2024/01/08 09:54:18;;;;;;;3.07;2.60;;;21.30;57.10;;;;;;5155805;27;21299;-70
2024/01/08 09:56:44;;;;;;;2.40;2.20;;;21.30;57.10;;;;;;5155685;27;20434;-70
2024/01/08 09:59:09;;;;;;;2.57;2.37;;;21.30;57.20;;;;;;5155359;27;20432;-70
2024/01/08 10:01:35;;;;;;;3.10;2.80;;;21.20;57.00;;;;;;5155502;27;20384;-69
2024/01/08 10:04:01;;;;;;;2.30;2.10;;;21.20;57.10;;;;;;5155331;27;20567;-70
2024/01/08 10:06:28;;;;;;;2.00;1.80;;;21.20;57.10;;;;;;5155209;27;20175;-70
2024/01/08 10:08:53;;;;;;;2.37;2.17;;;21.20;57.10;;;;;;5155273;27;20462;-69
2024/01/08 10:11:19;;;;;;;2.10;1.83;;;21.20;57.10;;;;;;5154950;27;20500;-69
2024/01/08 10:13:44;;;;;;;2.80;2.10;;;21.20;57.10;;;;;;5154987;27;20264;-70
2024/01/08 10:16:10;;;;;;;2.50;2.30;;;21.20;57.10;;;;;;5155391;27;20196;-69
2024/01/08 10:18:37;;;;;;;2.80;2.23;;;21.20;57.10;;;;;;5154803;27;20199;-69
2024/01/08 10:21:11;;;;;;;2.50;2.30;;;21.20;57.20;;;;;;5136443;27;20425;-70
2024/01/08 10:23:38;;;;;;;2.60;2.37;;;21.20;57.20;;;;;;5154981;27;20889;-69
2024/01/08 10:26:04;;;;;;;3.03;2.50;;;21.20;57.20;;;;;;5155080;27;20415;-70
2024/01/08 10:28:37;;;;;;;2.47;2.27;;;21.20;57.20;;;;;;5154824;27;20457;-70
2024/01/08 10:31:07;;;;;;;2.63;2.40;;;21.20;57.20;;;;;;5154559;27;20412;-71
2024/01/08 10:33:34;;;;;;;2.40;2.20;;;21.20;57.20;;;;;;5154923;27;20478;-70
2024/01/08 10:36:04;;;;;;;2.30;2.00;;;21.20;57.10;;;;;;5154817;27;20413;-69
2024/01/08 10:38:32;;;;;;;2.80;2.53;;;21.20;57.10;;;;;;5154168;27;20437;-70
2024/01/08 10:41:00;;;;;;;2.60;2.23;;;21.20;57.10;;;;;;5154656;27;20503;-70
2024/01/08 10:43:30;;;;;;;2.70;2.50;;;21.20;57.10;;;;;;5154305;27;20460;-70
2024/01/08 10:46:00;;;;;;;3.10;2.80;;;21.20;57.10;;;;;;5154687;27;20458;-69
2024/01/08 10:48:40;;;;;;;3.00;2.50;;;21.20;57.10;;;;;;5154129;27;20947;-71
2024/01/08 10:51:07;;;;;;;2.97;2.40;;;21.20;57.20;;;;;;5154866;27;20401;-70
2024/01/08 10:53:47;;;;;;;3.57;2.60;;;21.10;57.10;;;;;;5154293;27;20413;-70
2024/01/08 10:56:20;;;;;;;3.20;2.87;;;21.20;57.20;;;;;;5154490;27;20421;-70
2024/01/08 10:59:03;;;;;;;2.90;2.70;;;21.10;57.10;;;;;;5154030;27;20429;-69
2024/01/08 11:01:32;;;;;;;2.60;2.27;;;21.10;57.10;;;;;;5154193;27;20396;-70
2024/01/08 11:04:03;;;;;;;2.70;2.40;;;21.10;57.20;;;;;;5154099;27;20553;-70
2024/01/08 11:06:30;;;;;;;2.93;2.57;;;21.10;57.20;;;;;;5154270;27;20844;-70
2024/01/08 11:08:57;;;;;;;3.43;2.40;;;21.10;57.70;;;;;;5154049;27;20432;-70
2024/01/08 11:11:23;;;;;;;3.23;2.97;;;21.10;57.20;;;;;;5154006;27;20458;-70
2024/01/08 11:13:49;;;;;;;2.73;2.30;;;21.10;57.20;;;;;;5153924;27;20408;-69
2024/01/08 11:16:27;;;;;;;2.63;2.43;;;21.10;57.20;;;;;;5154334;27;20195;-70
2024/01/08 11:19:18;;;;;;;2.70;2.50;;;21.10;57.20;;;;;;5153955;27;20520;-70
2024/01/08 11:21:45;;;;;;;2.83;2.50;;;21.10;57.20;;;;;;5154078;27;21133;-70
2024/01/08 11:24:11;;;;;;;2.30;2.10;;;21.10;57.20;;;;;;5153952;27;21192;-70
2024/01/08 11:26:44;;;;;;;2.30;2.10;;;21.10;57.20;;;;;;5154142;27;20413;-70
2024/01/08 11:29:10;;;;;;;2.47;2.23;;;21.10;57.30;;;;;;5153814;27;20183;-71
2024/01/08 11:32:03;;;;;;;2.50;2.30;;;21.10;57.30;;;;;;5153638;27;20413;-69
2024/01/08 11:34:53;;;;;;;3.40;2.67;;;21.10;57.30;;;;;;5154190;27;20450;-70
2024/01/08 11:37:31;;;;;;;2.40;2.20;;;21.10;57.30;;;;;;5154158;27;20394;-70
2024/01/08 11:40:02;;;;;;;3.30;2.20;;;21.10;57.30;;;;;;5153937;27;20748;-70
2024/01/08 11:42:29;;;;;;;2.50;2.30;;;21.10;57.30;;;;;;5154115;27;20437;-70
2024/01/08 11:45:00;;;;;;;2.93;2.10;;;21.10;57.30;;;;;;5135483;27;20413;-69
2024/01/08 11:47:26;;;;;;;2.70;2.50;;;21.10;57.30;;;;;;5154360;27;20389;-69
2024/01/08 11:49:51;;;;;;;2.60;2.40;;;21.10;57.30;;;;;;5153860;27;20528;-70
2024/01/08 11:52:18;;;;;;;2.97;2.67;;;21.10;57.30;;;;;;5154461;27;20172;-70
2024/01/08 11:54:48;;;;;;;2.60;2.37;;;21.10;57.20;;;;;;5154196;27;20171;-70
2024/01/08 11:57:15;;;;;;;2.90;2.53;;;21.10;57.30;;;;;;5154238;27;20421;-69
2024/01/08 11:59:41;;;;;;;2.77;2.40;;;21.10;57.30;;;;;;5155309;27;21074;-70
2024/01/08 12:02:19;;;;;;;2.27;2.07;;;21.10;57.30;;;;;;5157899;27;20440;-70
2024/01/08 12:04:53;;;;;;;3.00;2.23;;;21.10;57.20;;;;;;5158005;27;20216;-69
2024/01/08 12:07:19;;;;;;;2.23;2.00;;;21.10;57.20;;;;;;5157930;27;20397;-70
2024/01/08 12:09:47;;;;;;;2.20;2.00;;;21.10;57.30;;;;;;5158026;27;20427;-69
2024/01/08 12:12:15;;;;;;;2.57;2.37;;;21.10;57.30;;;;;;5158120;27;20966;-69
2024/01/08 12:14:41;;;;;;;2.47;2.17;;;21.10;57.20;;;;;;5157564;27;20405;-69
2024/01/08 12:17:07;;;;;;;2.40;2.20;;;21.10;57.30;;;;;;5157616;27;20460;-70
2024/01/08 12:19:40;;;;;;;2.70;2.07;;;21.10;57.30;;;;;;5157437;27;20191;-69
2024/01/08 12:22:05;;;;;;;3.27;2.67;;;21.10;57.30;;;;;;5157257;27;20499;-70
2024/01/08 12:24:33;;;;;;;2.33;2.13;;;21.10;57.30;;;;;;5157436;27;20488;-67
2024/01/08 12:27:06;;;;;;;2.53;2.33;;;21.10;57.30;;;;;;5157180;27;20168;-70
2024/01/08 12:29:42;;;;;;;2.80;2.50;;;21.10;57.30;;;;;;5158059;27;20428;-70
2024/01/08 12:32:18;;;;;;;2.40;2.20;;;21.10;57.30;;;;;;5157831;27;20393;-71
2024/01/08 12:34:45;;;;;;;3.90;2.40;;;21.10;57.30;;;;;;5157478;27;20404;-69
2024/01/08 12:37:12;;;;;;;2.87;2.60;;;21.10;57.30;;;;;;5157156;27;20409;-68
2024/01/08 12:39:38;;;;;;;2.13;1.97;;;21.10;57.40;;;;;;5157114;27;20489;-71
2024/01/08 12:42:12;;;;;;;2.50;2.30;;;21.10;57.30;;;;;;5157191;27;20441;-70
2024/01/08 12:44:38;;;;;;;2.57;2.37;;;21.10;57.30;;;;;;5156936;27;20396;-70